sensor_id;sensor_type;location;lat;lon;timestamp;P1;durP1;ratioP1;P2;durP2;ratioP2
38425;SDS011;24210;51.460;6.148;2022-08-07T00:00:17;2.83;;;1.57;;
38425;SDS011;24210;51.460;6.148;2022-08-07T00:02:42;4.27;;;2.93;;
38425;SDS011;24210;51.460;6.148;2022-08-07T00:05:07;2.00;;;1.90;;
38425;SDS011;24210;51.460;6.148;2022-08-07T00:07:33;4.97;;;1.83;;
38425;SDS011;24210;51.460;6.148;2022-08-07T00:09:58;4.37;;;1.60;;
38425;SDS011;24210;51.460;6.148;2022-08-07T00:12:23;3.37;;;1.90;;
38425;SDS011;24210;51.460;6.148;2022-08-07T00:14:48;1.93;;;1.67;;
38425;SDS011;24210;51.460;6.148;2022-08-07T00:17:13;1.97;;;1.50;;
38425;SDS011;24210;51.460;6.148;2022-08-07T00:19:39;2.50;;;2.20;;
38425;SDS011;24210;51.460;6.148;2022-08-07T00:22:04;5.00;;;2.37;;
38425;SDS011;24210;51.460;6.148;2022-08-07T00:24:30;2.85;;;2.10;;
38425;SDS011;24210;51.460;6.148;2022-08-07T00:26:55;2.53;;;1.87;;
38425;SDS011;24210;51.460;6.148;2022-08-07T00:29:21;2.53;;;1.83;;
38425;SDS011;24210;51.460;6.148;2022-08-07T00:31:50;2.38;;;1.73;;
38425;SDS011;24210;51.460;6.148;2022-08-07T00:34:15;4.60;;;1.75;;
38425;SDS011;24210;51.460;6.148;2022-08-07T00:36:41;2.53;;;1.90;;
38425;SDS011;24210;51.460;6.148;2022-08-07T00:39:07;2.13;;;1.92;;
38425;SDS011;24210;51.460;6.148;2022-08-07T00:41:32;2.77;;;1.70;;
38425;SDS011;24210;51.460;6.148;2022-08-07T00:43:57;2.27;;;1.80;;
38425;SDS011;24210;51.460;6.148;2022-08-07T00:46:23;2.27;;;2.03;;
38425;SDS011;24210;51.460;6.148;2022-08-07T00:48:48;2.97;;;1.80;;
38425;SDS011;24210;51.460;6.148;2022-08-07T00:51:13;3.63;;;1.93;;
38425;SDS011;24210;51.460;6.148;2022-08-07T00:53:39;2.87;;;2.47;;
38425;SDS011;24210;51.460;6.148;2022-08-07T00:56:04;2.10;;;1.60;;
38425;SDS011;24210;51.460;6.148;2022-08-07T00:58:30;5.33;;;2.00;;
38425;SDS011;24210;51.460;6.148;2022-08-07T01:03:21;2.33;;;1.85;;
38425;SDS011;24210;51.460;6.148;2022-08-07T01:05:46;3.83;;;1.77;;
38425;SDS011;24210;51.460;6.148;2022-08-07T01:08:13;6.18;;;1.88;;
38425;SDS011;24210;51.460;6.148;2022-08-07T01:10:38;3.37;;;1.70;;
38425;SDS011;24210;51.460;6.148;2022-08-07T01:13:04;3.90;;;1.97;;
38425;SDS011;24210;51.460;6.148;2022-08-07T01:15:29;3.50;;;1.90;;
38425;SDS011;24210;51.460;6.148;2022-08-07T01:17:56;2.55;;;2.35;;
38425;SDS011;24210;51.460;6.148;2022-08-07T01:20:24;2.10;;;1.97;;
38425;SDS011;24210;51.460;6.148;2022-08-07T01:22:50;2.35;;;1.90;;
38425;SDS011;24210;51.460;6.148;2022-08-07T01:25:15;2.27;;;1.97;;
38425;SDS011;24210;51.460;6.148;2022-08-07T01:27:40;3.27;;;2.87;;
38425;SDS011;24210;51.460;6.148;2022-08-07T01:30:06;2.53;;;2.33;;
38425;SDS011;24210;51.460;6.148;2022-08-07T01:32:31;2.10;;;1.90;;
38425;SDS011;24210;51.460;6.148;2022-08-07T01:34:57;7.27;;;2.17;;
38425;SDS011;24210;51.460;6.148;2022-08-07T01:37:23;4.20;;;2.00;;
38425;SDS011;24210;51.460;6.148;2022-08-07T01:39:48;2.00;;;1.83;;
38425;SDS011;24210;51.460;6.148;2022-08-07T01:42:14;6.00;;;2.10;;
38425;SDS011;24210;51.460;6.148;2022-08-07T01:44:40;2.87;;;2.00;;
38425;SDS011;24210;51.460;6.148;2022-08-07T01:47:05;2.42;;;1.83;;
38425;SDS011;24210;51.460;6.148;2022-08-07T01:49:30;2.70;;;2.00;;
38425;SDS011;24210;51.460;6.148;2022-08-07T01:51:57;2.42;;;2.22;;
38425;SDS011;24210;51.460;6.148;2022-08-07T01:54:23;2.28;;;1.85;;
38425;SDS011;24210;51.460;6.148;2022-08-07T01:56:53;2.80;;;1.88;;
38425;SDS011;24210;51.460;6.148;2022-08-07T02:01:47;2.20;;;2.00;;
38425;SDS011;24210;51.460;6.148;2022-08-07T02:06:39;2.53;;;2.33;;
38425;SDS011;24210;51.460;6.148;2022-08-07T02:09:07;3.13;;;1.83;;
38425;SDS011;24210;51.460;6.148;2022-08-07T02:11:34;2.83;;;2.42;;
38425;SDS011;24210;51.460;6.148;2022-08-07T02:14:00;2.50;;;2.30;;
38425;SDS011;24210;51.460;6.148;2022-08-07T02:16:26;4.45;;;2.20;;
38425;SDS011;24210;51.460;6.148;2022-08-07T02:18:52;2.28;;;1.88;;
38425;SDS011;24210;51.460;6.148;2022-08-07T02:21:18;1.98;;;1.85;;
38425;SDS011;24210;51.460;6.148;2022-08-07T02:23:44;3.00;;;2.13;;
38425;SDS011;24210;51.460;6.148;2022-08-07T02:26:09;3.08;;;2.85;;
38425;SDS011;24210;51.460;6.148;2022-08-07T02:28:35;2.17;;;1.97;;
38425;SDS011;24210;51.460;6.148;2022-08-07T02:31:02;8.27;;;2.38;;
38425;SDS011;24210;51.460;6.148;2022-08-07T02:33:29;2.88;;;2.42;;
38425;SDS011;24210;51.460;6.148;2022-08-07T02:35:55;3.47;;;1.95;;
38425;SDS011;24210;51.460;6.148;2022-08-07T02:38:22;2.65;;;1.80;;
38425;SDS011;24210;51.460;6.148;2022-08-07T02:40:49;2.80;;;2.45;;
38425;SDS011;24210;51.460;6.148;2022-08-07T02:43:14;2.47;;;2.27;;
38425;SDS011;24210;51.460;6.148;2022-08-07T02:45:40;2.25;;;2.15;;
38425;SDS011;24210;51.460;6.148;2022-08-07T02:48:06;1.75;;;1.65;;
38425;SDS011;24210;51.460;6.148;2022-08-07T02:50:32;3.77;;;2.13;;
38425;SDS011;24210;51.460;6.148;2022-08-07T02:52:59;2.42;;;2.22;;
38425;SDS011;24210;51.460;6.148;2022-08-07T02:55:26;2.17;;;1.98;;
38425;SDS011;24210;51.460;6.148;2022-08-07T02:57:54;2.70;;;2.00;;
38425;SDS011;24210;51.460;6.148;2022-08-07T03:00:22;3.65;;;2.70;;
38425;SDS011;24210;51.460;6.148;2022-08-07T03:02:48;3.93;;;1.70;;
38425;SDS011;24210;51.460;6.148;2022-08-07T03:05:14;5.67;;;2.37;;
38425;SDS011;24210;51.460;6.148;2022-08-07T03:07:40;4.93;;;2.03;;
38425;SDS011;24210;51.460;6.148;2022-08-07T03:10:07;2.30;;;1.90;;
38425;SDS011;24210;51.460;6.148;2022-08-07T03:12:32;4.20;;;1.70;;
38425;SDS011;24210;51.460;6.148;2022-08-07T03:14:58;2.43;;;1.97;;
38425;SDS011;24210;51.460;6.148;2022-08-07T03:17:24;5.20;;;2.85;;
38425;SDS011;24210;51.460;6.148;2022-08-07T03:19:49;2.70;;;1.70;;
38425;SDS011;24210;51.460;6.148;2022-08-07T03:22:15;2.50;;;2.03;;
38425;SDS011;24210;51.460;6.148;2022-08-07T03:24:40;9.43;;;3.53;;
38425;SDS011;24210;51.460;6.148;2022-08-07T03:27:06;3.37;;;2.87;;
38425;SDS011;24210;51.460;6.148;2022-08-07T03:29:32;3.10;;;2.40;;
38425;SDS011;24210;51.460;6.148;2022-08-07T03:31:58;3.33;;;2.97;;
38425;SDS011;24210;51.460;6.148;2022-08-07T03:34:24;6.80;;;2.38;;
38425;SDS011;24210;51.460;6.148;2022-08-07T03:39:16;3.78;;;2.47;;
38425;SDS011;24210;51.460;6.148;2022-08-07T03:41:42;2.65;;;2.40;;
38425;SDS011;24210;51.460;6.148;2022-08-07T03:44:08;3.43;;;2.60;;
38425;SDS011;24210;51.460;6.148;2022-08-07T03:46:33;5.97;;;2.50;;
38425;SDS011;24210;51.460;6.148;2022-08-07T03:48:59;4.07;;;2.50;;
38425;SDS011;24210;51.460;6.148;2022-08-07T03:51:25;4.10;;;2.60;;
38425;SDS011;24210;51.460;6.148;2022-08-07T03:53:50;3.93;;;2.37;;
38425;SDS011;24210;51.460;6.148;2022-08-07T03:56:19;3.80;;;2.77;;
38425;SDS011;24210;51.460;6.148;2022-08-07T03:58:45;3.75;;;2.25;;
38425;SDS011;24210;51.460;6.148;2022-08-07T04:01:11;3.90;;;2.47;;
38425;SDS011;24210;51.460;6.148;2022-08-07T04:06:02;4.83;;;2.93;;
38425;SDS011;24210;51.460;6.148;2022-08-07T04:08:31;4.38;;;2.70;;
38425;SDS011;24210;51.460;6.148;2022-08-07T04:10:57;4.85;;;2.95;;
38425;SDS011;24210;51.460;6.148;2022-08-07T04:13:23;2.83;;;2.63;;
38425;SDS011;24210;51.460;6.148;2022-08-07T04:15:49;3.33;;;2.53;;
38425;SDS011;24210;51.460;6.148;2022-08-07T04:18:14;3.27;;;2.83;;
38425;SDS011;24210;51.460;6.148;2022-08-07T04:20:40;8.03;;;2.63;;
38425;SDS011;24210;51.460;6.148;2022-08-07T04:23:06;5.20;;;2.85;;
38425;SDS011;24210;51.460;6.148;2022-08-07T04:25:32;3.27;;;2.97;;
38425;SDS011;24210;51.460;6.148;2022-08-07T04:27:58;5.30;;;3.17;;
38425;SDS011;24210;51.460;6.148;2022-08-07T04:30:23;3.75;;;3.20;;
38425;SDS011;24210;51.460;6.148;2022-08-07T04:32:48;5.07;;;3.70;;
38425;SDS011;24210;51.460;6.148;2022-08-07T04:35:14;4.30;;;3.90;;
38425;SDS011;24210;51.460;6.148;2022-08-07T04:37:39;5.50;;;3.33;;
38425;SDS011;24210;51.460;6.148;2022-08-07T04:40:04;4.90;;;2.80;;
38425;SDS011;24210;51.460;6.148;2022-08-07T04:42:30;3.30;;;3.00;;
38425;SDS011;24210;51.460;6.148;2022-08-07T04:44:58;5.05;;;3.30;;
38425;SDS011;24210;51.460;6.148;2022-08-07T04:47:28;4.43;;;3.28;;
38425;SDS011;24210;51.460;6.148;2022-08-07T04:49:58;5.00;;;3.30;;
38425;SDS011;24210;51.460;6.148;2022-08-07T04:54:54;3.80;;;3.40;;
38425;SDS011;24210;51.460;6.148;2022-08-07T05:00:05;4.43;;;3.00;;
38425;SDS011;24210;51.460;6.148;2022-08-07T05:02:41;5.10;;;3.67;;
38425;SDS011;24210;51.460;6.148;2022-08-07T05:07:36;4.53;;;4.03;;
38425;SDS011;24210;51.460;6.148;2022-08-07T05:10:11;9.02;;;4.45;;
38425;SDS011;24210;51.460;6.148;2022-08-07T05:12:41;4.70;;;4.07;;
38425;SDS011;24210;51.460;6.148;2022-08-07T05:15:13;7.82;;;4.53;;
38425;SDS011;24210;51.460;6.148;2022-08-07T05:17:42;7.22;;;4.97;;
38425;SDS011;24210;51.460;6.148;2022-08-07T05:20:09;6.43;;;4.63;;
38425;SDS011;24210;51.460;6.148;2022-08-07T05:22:35;5.63;;;5.00;;
38425;SDS011;24210;51.460;6.148;2022-08-07T05:25:02;6.35;;;5.75;;
38425;SDS011;24210;51.460;6.148;2022-08-07T05:27:27;6.80;;;6.10;;
38425;SDS011;24210;51.460;6.148;2022-08-07T05:29:53;6.20;;;5.60;;
38425;SDS011;24210;51.460;6.148;2022-08-07T05:32:19;6.03;;;4.80;;
38425;SDS011;24210;51.460;6.148;2022-08-07T05:34:44;6.80;;;5.00;;
38425;SDS011;24210;51.460;6.148;2022-08-07T05:37:11;8.63;;;5.28;;
38425;SDS011;24210;51.460;6.148;2022-08-07T05:39:37;6.57;;;5.35;;
38425;SDS011;24210;51.460;6.148;2022-08-07T05:42:03;7.80;;;5.70;;
38425;SDS011;24210;51.460;6.148;2022-08-07T05:44:28;6.80;;;5.63;;
38425;SDS011;24210;51.460;6.148;2022-08-07T05:46:54;8.30;;;5.07;;
38425;SDS011;24210;51.460;6.148;2022-08-07T05:49:20;5.82;;;4.88;;
38425;SDS011;24210;51.460;6.148;2022-08-07T05:51:46;6.47;;;5.63;;
38425;SDS011;24210;51.460;6.148;2022-08-07T05:54:11;5.70;;;5.07;;
38425;SDS011;24210;51.460;6.148;2022-08-07T05:56:37;6.23;;;5.63;;
38425;SDS011;24210;51.460;6.148;2022-08-07T05:59:04;9.63;;;6.38;;
38425;SDS011;24210;51.460;6.148;2022-08-07T06:01:29;6.45;;;5.70;;
38425;SDS011;24210;51.460;6.148;2022-08-07T06:03:55;9.27;;;5.65;;
38425;SDS011;24210;51.460;6.148;2022-08-07T06:06:22;10.43;;;7.20;;
38425;SDS011;24210;51.460;6.148;2022-08-07T06:08:47;6.43;;;5.73;;
38425;SDS011;24210;51.460;6.148;2022-08-07T06:11:13;9.20;;;6.60;;
38425;SDS011;24210;51.460;6.148;2022-08-07T06:13:38;8.10;;;7.30;;
38425;SDS011;24210;51.460;6.148;2022-08-07T06:16:05;11.10;;;6.93;;
38425;SDS011;24210;51.460;6.148;2022-08-07T06:18:31;7.28;;;6.50;;
38425;SDS011;24210;51.460;6.148;2022-08-07T06:20:56;10.37;;;7.17;;
38425;SDS011;24210;51.460;6.148;2022-08-07T06:23:22;7.20;;;6.50;;
38425;SDS011;24210;51.460;6.148;2022-08-07T06:25:47;9.70;;;6.20;;
38425;SDS011;24210;51.460;6.148;2022-08-07T06:28:12;7.63;;;6.47;;
38425;SDS011;24210;51.460;6.148;2022-08-07T06:30:38;10.27;;;5.87;;
38425;SDS011;24210;51.460;6.148;2022-08-07T06:33:03;8.57;;;6.87;;
38425;SDS011;24210;51.460;6.148;2022-08-07T06:35:29;8.88;;;6.30;;
38425;SDS011;24210;51.460;6.148;2022-08-07T06:37:54;7.87;;;6.50;;
38425;SDS011;24210;51.460;6.148;2022-08-07T06:40:22;8.13;;;6.70;;
38425;SDS011;24210;51.460;6.148;2022-08-07T06:42:47;8.33;;;7.37;;
38425;SDS011;24210;51.460;6.148;2022-08-07T06:45:13;8.50;;;6.67;;
38425;SDS011;24210;51.460;6.148;2022-08-07T06:47:39;9.70;;;7.00;;
38425;SDS011;24210;51.460;6.148;2022-08-07T06:50:04;9.23;;;6.83;;
38425;SDS011;24210;51.460;6.148;2022-08-07T06:52:32;8.53;;;6.70;;
38425;SDS011;24210;51.460;6.148;2022-08-07T06:54:58;8.90;;;6.65;;
38425;SDS011;24210;51.460;6.148;2022-08-07T06:57:24;9.38;;;7.05;;
38425;SDS011;24210;51.460;6.148;2022-08-07T06:59:50;6.97;;;6.27;;
38425;SDS011;24210;51.460;6.148;2022-08-07T07:02:19;9.83;;;6.10;;
38425;SDS011;24210;51.460;6.148;2022-08-07T07:04:45;9.95;;;6.47;;
38425;SDS011;24210;51.460;6.148;2022-08-07T07:07:11;7.88;;;6.10;;
38425;SDS011;24210;51.460;6.148;2022-08-07T07:09:37;7.83;;;6.30;;
38425;SDS011;24210;51.460;6.148;2022-08-07T07:14:50;9.43;;;6.90;;
38425;SDS011;24210;51.460;6.148;2022-08-07T07:17:27;8.57;;;6.25;;
38425;SDS011;24210;51.460;6.148;2022-08-07T07:19:55;9.27;;;6.18;;
38425;SDS011;24210;51.460;6.148;2022-08-07T07:22:21;7.57;;;4.85;;
38425;SDS011;24210;51.460;6.148;2022-08-07T07:24:47;6.67;;;5.17;;
38425;SDS011;24210;51.460;6.148;2022-08-07T07:27:13;9.00;;;5.43;;
38425;SDS011;24210;51.460;6.148;2022-08-07T07:29:41;9.88;;;4.88;;
38425;SDS011;24210;51.460;6.148;2022-08-07T07:32:10;6.65;;;4.20;;
38425;SDS011;24210;51.460;6.148;2022-08-07T07:34:37;8.07;;;5.28;;
38425;SDS011;24210;51.460;6.148;2022-08-07T07:37:04;7.30;;;5.85;;
38425;SDS011;24210;51.460;6.148;2022-08-07T07:41:56;9.10;;;6.32;;
38425;SDS011;24210;51.460;6.148;2022-08-07T07:44:22;9.77;;;5.70;;
38425;SDS011;24210;51.460;6.148;2022-08-07T07:46:48;8.20;;;4.72;;
38425;SDS011;24210;51.460;6.148;2022-08-07T07:49:14;10.67;;;4.83;;
38425;SDS011;24210;51.460;6.148;2022-08-07T07:51:39;9.95;;;5.60;;
38425;SDS011;24210;51.460;6.148;2022-08-07T07:56:31;7.60;;;4.70;;
38425;SDS011;24210;51.460;6.148;2022-08-07T07:59:03;7.00;;;4.17;;
38425;SDS011;24210;51.460;6.148;2022-08-07T08:01:29;6.32;;;4.15;;
38425;SDS011;24210;51.460;6.148;2022-08-07T08:03:56;7.72;;;5.18;;
38425;SDS011;24210;51.460;6.148;2022-08-07T08:06:22;5.50;;;3.92;;
38425;SDS011;24210;51.460;6.148;2022-08-07T08:08:48;5.13;;;3.97;;
38425;SDS011;24210;51.460;6.148;2022-08-07T08:11:15;5.30;;;4.75;;
38425;SDS011;24210;51.460;6.148;2022-08-07T08:13:44;6.07;;;3.40;;
38425;SDS011;24210;51.460;6.148;2022-08-07T08:16:11;6.53;;;3.65;;
38425;SDS011;24210;51.460;6.148;2022-08-07T08:18:38;7.00;;;3.10;;
38425;SDS011;24210;51.460;6.148;2022-08-07T08:21:03;4.90;;;2.93;;
38425;SDS011;24210;51.460;6.148;2022-08-07T08:23:29;4.93;;;3.67;;
38425;SDS011;24210;51.460;6.148;2022-08-07T08:26:13;3.72;;;2.72;;
38425;SDS011;24210;51.460;6.148;2022-08-07T08:28:58;5.32;;;3.30;;
38425;SDS011;24210;51.460;6.148;2022-08-07T08:31:25;3.65;;;2.92;;
38425;SDS011;24210;51.460;6.148;2022-08-07T08:33:52;6.18;;;2.88;;
38425;SDS011;24210;51.460;6.148;2022-08-07T08:36:18;4.47;;;2.13;;
38425;SDS011;24210;51.460;6.148;2022-08-07T08:38:44;3.88;;;2.92;;
38425;SDS011;24210;51.460;6.148;2022-08-07T08:41:24;7.53;;;3.65;;
38425;SDS011;24210;51.460;6.148;2022-08-07T08:43:55;3.88;;;3.42;;
38425;SDS011;24210;51.460;6.148;2022-08-07T08:46:27;7.32;;;2.75;;
38425;SDS011;24210;51.460;6.148;2022-08-07T08:51:42;4.57;;;2.08;;
38425;SDS011;24210;51.460;6.148;2022-08-07T08:54:31;1.63;;;1.27;;
38425;SDS011;24210;51.460;6.148;2022-08-07T08:57:01;1.90;;;1.58;;
38425;SDS011;24210;51.460;6.148;2022-08-07T08:59:29;5.20;;;1.50;;
38425;SDS011;24210;51.460;6.148;2022-08-07T09:04:59;2.28;;;1.38;;
38425;SDS011;24210;51.460;6.148;2022-08-07T09:07:31;1.92;;;1.70;;
38425;SDS011;24210;51.460;6.148;2022-08-07T09:10:06;2.67;;;1.52;;
38425;SDS011;24210;51.460;6.148;2022-08-07T09:12:45;0.77;;;0.60;;
38425;SDS011;24210;51.460;6.148;2022-08-07T09:17:58;1.85;;;0.75;;
38425;SDS011;24210;51.460;6.148;2022-08-07T09:23:01;1.20;;;0.70;;
38425;SDS011;24210;51.460;6.148;2022-08-07T09:25:43;1.75;;;0.68;;
38425;SDS011;24210;51.460;6.148;2022-08-07T09:28:13;2.60;;;0.80;;
38425;SDS011;24210;51.460;6.148;2022-08-07T09:33:14;4.50;;;1.20;;
38425;SDS011;24210;51.460;6.148;2022-08-07T09:35:46;4.47;;;1.00;;
38425;SDS011;24210;51.460;6.148;2022-08-07T09:38:15;1.75;;;0.90;;
38425;SDS011;24210;51.460;6.148;2022-08-07T09:40:53;1.08;;;0.70;;
38425;SDS011;24210;51.460;6.148;2022-08-07T09:46:08;2.92;;;0.68;;
38425;SDS011;24210;51.460;6.148;2022-08-07T09:48:45;1.58;;;1.48;;
38425;SDS011;24210;51.460;6.148;2022-08-07T09:53:38;1.60;;;0.83;;
38425;SDS011;24210;51.460;6.148;2022-08-07T10:01:57;2.90;;;0.70;;
38425;SDS011;24210;51.460;6.148;2022-08-07T10:12:39;1.02;;;0.73;;
38425;SDS011;24210;51.460;6.148;2022-08-07T10:17:58;1.85;;;0.60;;
38425;SDS011;24210;51.460;6.148;2022-08-07T10:20:41;2.08;;;0.75;;
38425;SDS011;24210;51.460;6.148;2022-08-07T10:25:56;2.17;;;1.00;;
38425;SDS011;24210;51.460;6.148;2022-08-07T10:28:36;2.80;;;0.93;;
38425;SDS011;24210;51.460;6.148;2022-08-07T10:38:50;0.90;;;0.35;;
38425;SDS011;24210;51.460;6.148;2022-08-07T10:41:32;1.20;;;0.65;;
38425;SDS011;24210;51.460;6.148;2022-08-07T10:44:02;1.00;;;0.35;;
38425;SDS011;24210;51.460;6.148;2022-08-07T10:46:34;1.38;;;0.77;;
38425;SDS011;24210;51.460;6.148;2022-08-07T10:49:07;0.60;;;0.38;;
38425;SDS011;24210;51.460;6.148;2022-08-07T10:51:52;2.10;;;0.57;;
38425;SDS011;24210;51.460;6.148;2022-08-07T10:54:27;1.58;;;0.70;;
38425;SDS011;24210;51.460;6.148;2022-08-07T11:02:10;2.15;;;0.60;;
38425;SDS011;24210;51.460;6.148;2022-08-07T11:07:27;2.35;;;1.10;;
38425;SDS011;24210;51.460;6.148;2022-08-07T11:12:27;0.73;;;0.70;;
38425;SDS011;24210;51.460;6.148;2022-08-07T11:14:57;0.85;;;0.75;;
38425;SDS011;24210;51.460;6.148;2022-08-07T11:23:10;2.42;;;0.40;;
38425;SDS011;24210;51.460;6.148;2022-08-07T11:25:43;1.70;;;0.30;;
38425;SDS011;24210;51.460;6.148;2022-08-07T11:28:28;2.67;;;0.60;;
38425;SDS011;24210;51.460;6.148;2022-08-07T11:31:09;1.77;;;0.35;;
38425;SDS011;24210;51.460;6.148;2022-08-07T11:33:48;1.70;;;0.60;;
38425;SDS011;24210;51.460;6.148;2022-08-07T11:39:35;1.63;;;0.47;;
38425;SDS011;24210;51.460;6.148;2022-08-07T11:41:39;2.85;;;0.77;;
38425;SDS011;24210;51.460;6.148;2022-08-07T12:07:31;1.95;;;0.30;;
38425;SDS011;24210;51.460;6.148;2022-08-07T12:09:58;2.20;;;0.70;;
38425;SDS011;24210;51.460;6.148;2022-08-07T12:12:32;1.45;;;0.50;;
38425;SDS011;24210;51.460;6.148;2022-08-07T12:15:04;1.45;;;1.05;;
38425;SDS011;24210;51.460;6.148;2022-08-07T12:17:44;1.20;;;0.80;;
38425;SDS011;24210;51.460;6.148;2022-08-07T12:20:14;2.58;;;0.73;;
38425;SDS011;24210;51.460;6.148;2022-08-07T12:25:33;0.90;;;0.50;;
38425;SDS011;24210;51.460;6.148;2022-08-07T12:28:22;0.95;;;0.40;;
38425;SDS011;24210;51.460;6.148;2022-08-07T12:30:48;1.63;;;0.68;;
38425;SDS011;24210;51.460;6.148;2022-08-07T12:33:15;1.25;;;0.50;;
38425;SDS011;24210;51.460;6.148;2022-08-07T12:35:43;2.10;;;0.32;;
38425;SDS011;24210;51.460;6.148;2022-08-07T12:38:09;2.25;;;0.90;;
38425;SDS011;24210;51.460;6.148;2022-08-07T12:40:35;2.50;;;0.68;;
38425;SDS011;24210;51.460;6.148;2022-08-07T12:43:03;2.80;;;0.70;;
38425;SDS011;24210;51.460;6.148;2022-08-07T12:45:44;0.85;;;0.50;;
38425;SDS011;24210;51.460;6.148;2022-08-07T12:48:23;1.50;;;0.82;;
38425;SDS011;24210;51.460;6.148;2022-08-07T12:50:52;1.30;;;0.50;;
38425;SDS011;24210;51.460;6.148;2022-08-07T12:53:34;1.17;;;0.73;;
38425;SDS011;24210;51.460;6.148;2022-08-07T12:56:24;1.33;;;0.45;;
38425;SDS011;24210;51.460;6.148;2022-08-07T12:58:51;1.10;;;0.47;;
38425;SDS011;24210;51.460;6.148;2022-08-07T13:01:40;6.37;;;0.63;;
38425;SDS011;24210;51.460;6.148;2022-08-07T13:07:07;0.77;;;0.47;;
38425;SDS011;24210;51.460;6.148;2022-08-07T13:09:49;1.30;;;0.80;;
38425;SDS011;24210;51.460;6.148;2022-08-07T13:12:27;2.88;;;0.77;;
38425;SDS011;24210;51.460;6.148;2022-08-07T13:22:46;1.48;;;0.70;;
38425;SDS011;24210;51.460;6.148;2022-08-07T13:25:19;1.77;;;0.57;;
38425;SDS011;24210;51.460;6.148;2022-08-07T13:27:50;1.00;;;0.50;;
38425;SDS011;24210;51.460;6.148;2022-08-07T13:30:17;0.55;;;0.40;;
38425;SDS011;24210;51.460;6.148;2022-08-07T13:32:52;4.73;;;0.80;;
38425;SDS011;24210;51.460;6.148;2022-08-07T13:40:48;0.57;;;0.45;;
38425;SDS011;24210;51.460;6.148;2022-08-07T13:43:16;0.93;;;0.40;;
38425;SDS011;24210;51.460;6.148;2022-08-07T13:45:43;1.20;;;0.60;;
38425;SDS011;24210;51.460;6.148;2022-08-07T13:48:10;2.70;;;0.85;;
38425;SDS011;24210;51.460;6.148;2022-08-07T13:50:37;2.70;;;0.60;;
38425;SDS011;24210;51.460;6.148;2022-08-07T13:53:03;0.90;;;0.50;;
38425;SDS011;24210;51.460;6.148;2022-08-07T13:55:29;3.35;;;0.88;;
38425;SDS011;24210;51.460;6.148;2022-08-07T13:57:58;1.10;;;0.60;;
38425;SDS011;24210;51.460;6.148;2022-08-07T14:00:47;1.27;;;0.65;;
38425;SDS011;24210;51.460;6.148;2022-08-07T14:03:13;1.87;;;0.70;;
38425;SDS011;24210;51.460;6.148;2022-08-07T14:05:40;2.78;;;0.60;;
38425;SDS011;24210;51.460;6.148;2022-08-07T14:08:07;1.10;;;1.00;;
38425;SDS011;24210;51.460;6.148;2022-08-07T14:10:33;2.73;;;0.93;;
38425;SDS011;24210;51.460;6.148;2022-08-07T14:13:00;2.13;;;0.45;;
38425;SDS011;24210;51.460;6.148;2022-08-07T14:15:40;1.42;;;0.93;;
38425;SDS011;24210;51.460;6.148;2022-08-07T14:18:17;1.33;;;0.60;;
38425;SDS011;24210;51.460;6.148;2022-08-07T14:20:43;3.33;;;0.57;;
38425;SDS011;24210;51.460;6.148;2022-08-07T14:23:13;0.93;;;0.60;;
38425;SDS011;24210;51.460;6.148;2022-08-07T14:25:39;2.33;;;0.65;;
38425;SDS011;24210;51.460;6.148;2022-08-07T14:28:07;7.95;;;1.30;;
38425;SDS011;24210;51.460;6.148;2022-08-07T14:30:32;1.50;;;0.75;;
38425;SDS011;24210;51.460;6.148;2022-08-07T14:33:01;1.80;;;0.70;;
38425;SDS011;24210;51.460;6.148;2022-08-07T14:35:27;3.92;;;1.10;;
38425;SDS011;24210;51.460;6.148;2022-08-07T14:37:54;0.57;;;0.57;;
38425;SDS011;24210;51.460;6.148;2022-08-07T14:40:21;3.13;;;1.00;;
38425;SDS011;24210;51.460;6.148;2022-08-07T14:43:08;1.55;;;0.77;;
38425;SDS011;24210;51.460;6.148;2022-08-07T14:45:33;2.90;;;0.98;;
38425;SDS011;24210;51.460;6.148;2022-08-07T14:48:04;0.75;;;0.70;;
38425;SDS011;24210;51.460;6.148;2022-08-07T14:50:31;3.00;;;0.98;;
38425;SDS011;24210;51.460;6.148;2022-08-07T14:52:56;1.53;;;0.80;;
38425;SDS011;24210;51.460;6.148;2022-08-07T14:55:29;1.35;;;0.82;;
38425;SDS011;24210;51.460;6.148;2022-08-07T14:57:56;1.13;;;0.70;;
38425;SDS011;24210;51.460;6.148;2022-08-07T15:00:22;4.28;;;0.38;;
38425;SDS011;24210;51.460;6.148;2022-08-07T15:02:51;2.88;;;0.65;;
38425;SDS011;24210;51.460;6.148;2022-08-07T15:05:18;2.47;;;0.60;;
38425;SDS011;24210;51.460;6.148;2022-08-07T15:07:44;12.10;;;1.38;;
38425;SDS011;24210;51.460;6.148;2022-08-07T15:10:15;2.65;;;0.93;;
38425;SDS011;24210;51.460;6.148;2022-08-07T15:12:41;1.00;;;1.00;;
38425;SDS011;24210;51.460;6.148;2022-08-07T15:15:07;2.27;;;0.63;;
38425;SDS011;24210;51.460;6.148;2022-08-07T15:17:35;0.90;;;0.70;;
38425;SDS011;24210;51.460;6.148;2022-08-07T15:20:03;2.85;;;0.85;;
38425;SDS011;24210;51.460;6.148;2022-08-07T15:22:30;1.00;;;0.70;;
38425;SDS011;24210;51.460;6.148;2022-08-07T15:24:56;1.00;;;0.93;;
38425;SDS011;24210;51.460;6.148;2022-08-07T15:27:24;2.15;;;0.90;;
38425;SDS011;24210;51.460;6.148;2022-08-07T15:29:51;2.17;;;1.02;;
38425;SDS011;24210;51.460;6.148;2022-08-07T15:32:18;2.15;;;0.60;;
38425;SDS011;24210;51.460;6.148;2022-08-07T15:34:53;2.92;;;0.98;;
38425;SDS011;24210;51.460;6.148;2022-08-07T15:39:46;4.03;;;1.17;;
38425;SDS011;24210;51.460;6.148;2022-08-07T15:44:55;4.70;;;1.02;;
38425;SDS011;24210;51.460;6.148;2022-08-07T15:47:21;1.63;;;0.80;;
38425;SDS011;24210;51.460;6.148;2022-08-07T15:49:49;0.88;;;0.68;;
38425;SDS011;24210;51.460;6.148;2022-08-07T15:52:19;0.80;;;0.80;;
38425;SDS011;24210;51.460;6.148;2022-08-07T15:54:46;1.38;;;0.85;;
38425;SDS011;24210;51.460;6.148;2022-08-07T15:59:37;1.65;;;1.05;;
38425;SDS011;24210;51.460;6.148;2022-08-07T16:02:04;2.17;;;0.90;;
38425;SDS011;24210;51.460;6.148;2022-08-07T16:04:32;1.10;;;1.00;;
38425;SDS011;24210;51.460;6.148;2022-08-07T16:06:59;5.22;;;0.85;;
38425;SDS011;24210;51.460;6.148;2022-08-07T16:09:46;2.30;;;1.00;;
38425;SDS011;24210;51.460;6.148;2022-08-07T16:20:30;2.10;;;0.73;;
38425;SDS011;24210;51.460;6.148;2022-08-07T16:23:00;1.42;;;1.02;;
38425;SDS011;24210;51.460;6.148;2022-08-07T16:30:45;0.93;;;0.80;;
38425;SDS011;24210;51.460;6.148;2022-08-07T16:33:13;2.03;;;0.90;;
38425;SDS011;24210;51.460;6.148;2022-08-07T16:35:42;2.55;;;1.05;;
38425;SDS011;24210;51.460;6.148;2022-08-07T16:50:59;0.90;;;0.63;;
38425;SDS011;24210;51.460;6.148;2022-08-07T17:01:16;2.40;;;1.02;;
38425;SDS011;24210;51.460;6.148;2022-08-07T17:09:49;0.95;;;0.63;;
38425;SDS011;24210;51.460;6.148;2022-08-07T17:14:47;4.50;;;1.05;;
38425;SDS011;24210;51.460;6.148;2022-08-07T17:17:27;1.30;;;0.75;;
38425;SDS011;24210;51.460;6.148;2022-08-07T17:19:55;1.20;;;1.00;;
38425;SDS011;24210;51.460;6.148;2022-08-07T17:22:25;2.15;;;0.88;;
38425;SDS011;24210;51.460;6.148;2022-08-07T17:24:54;1.23;;;0.90;;
38425;SDS011;24210;51.460;6.148;2022-08-07T17:30:17;3.60;;;1.13;;
38425;SDS011;24210;51.460;6.148;2022-08-07T17:35:34;1.02;;;1.00;;
38425;SDS011;24210;51.460;6.148;2022-08-07T17:43:17;2.03;;;1.00;;
38425;SDS011;24210;51.460;6.148;2022-08-07T17:45:53;1.48;;;1.23;;
38425;SDS011;24210;51.460;6.148;2022-08-07T17:48:22;2.70;;;1.23;;
38425;SDS011;24210;51.460;6.148;2022-08-07T17:51:14;1.98;;;1.38;;
38425;SDS011;24210;51.460;6.148;2022-08-07T17:58:42;1.37;;;1.27;;
38425;SDS011;24210;51.460;6.148;2022-08-07T18:01:15;1.67;;;1.50;;
38425;SDS011;24210;51.460;6.148;2022-08-07T18:03:46;1.70;;;1.50;;
38425;SDS011;24210;51.460;6.148;2022-08-07T18:06:12;3.50;;;2.00;;
38425;SDS011;24210;51.460;6.148;2022-08-07T18:11:13;4.30;;;1.00;;
38425;SDS011;24210;51.460;6.148;2022-08-07T18:13:43;4.43;;;1.50;;
38425;SDS011;24210;51.460;6.148;2022-08-07T18:16:16;1.88;;;1.55;;
38425;SDS011;24210;51.460;6.148;2022-08-07T18:18:48;2.70;;;1.70;;